Flight Track Log - Related Links

Times and Time Zones

All times are in EST time to prevent confusion due to time zone crossing. See the SEJ112 flight status page for this flight to view local times or setup timezone preferences in your user account.

Time Position Orientation Groundspeed Altitude Reporting Facility
EST Latitude Longitude Course Direction KTS MPH feet Rate Location/Type
Wed 01:03:00 AM 10.5892 76.2354 339° North  Level Estimated
Wed 01:04:00 AM 10.6621 76.2076 339° North  Level Estimated
Wed 01:05:00 AM 10.7349 76.1798 339° North  Level Estimated
Wed 01:06:00 AM 10.8078 76.1520 339° North  Level Estimated
Wed 01:07:00 AM 10.8806 76.1242 339° North  Level Estimated
Wed 01:08:00 AM 10.9535 76.0964 339° North  Level Estimated
Wed 01:09:00 AM 11.0263 76.0685 339° North  Level Estimated
Wed 01:10:00 AM 11.0992 76.0406 339° North  Level Estimated
Wed 01:11:00 AM 11.1720 76.0127 339° North  Level Estimated
Wed 01:12:00 AM 11.2449 75.9848 339° North  Level Estimated
Wed 01:13:00 AM 11.3177 75.9569 339° North  Level Estimated
Wed 01:14:00 AM 11.3905 75.9290 339° North  Level Estimated
Wed 01:15:00 AM 11.4634 75.9011 339° North  Level Estimated
Wed 01:16:00 AM 11.5362 75.8731 339° North  Level Estimated
Wed 01:17:00 AM 11.6090 75.8451 339° North  Level Estimated
Wed 01:17:59 AM 12.1296 75.3939 339° North 457 526 34,000  Level FlightAware ADS-B (VOYK)
Wed 01:18:00 AM 11.6819 75.8171 339° North  Level Estimated
Wed 01:18:29 AM 12.1886 75.3643 334° Northwest 457 526 34,000  Level FlightAware ADS-B (VOYK)
Wed 01:21:19 AM 12.5117 75.2020 341° North 461 531 34,000  Level FlightAware ADS-B (VOYK)
Wed 01:21:49 AM 12.5683 75.1734 334° Northwest 461 531 34,000  Level FlightAware ADS-B (VOYK)
Wed 01:21:55 AM 12.5721 75.1715 334° Northwest 461 531 34,000  Level FlightAware ADS-B (VOYK)
Wed 01:24:00 AM 12.7258 75.1188 342° North  Level Estimated
Wed 01:25:00 AM 12.7996 75.0935 342° North  Level Estimated
Wed 01:26:00 AM 12.8734 75.0682 342° North  Level Estimated
Wed 01:27:00 AM 12.9472 75.0428 341° North  Level Estimated
Wed 01:28:00 AM 13.0210 75.0175 341° North  Level Estimated
Wed 01:29:00 AM 13.0948 74.9921 341° North  Level Estimated
Wed 01:30:00 AM 13.1685 74.9667 341° North  Level Estimated
Wed 01:31:00 AM 13.2423 74.9413 341° North  Level Estimated
Wed 01:32:00 AM 13.3161 74.9159 341° North  Level Estimated
Wed 01:33:00 AM 13.3899 74.8905 341° North  Level Estimated
Wed 01:34:00 AM 13.4636 74.8651 341° North  Level Estimated
Wed 01:35:00 AM 13.5374 74.8396 341° North  Level Estimated
Wed 01:36:00 AM 13.6112 74.8141 341° North  Level Estimated
Wed 01:37:00 AM 13.6849 74.7886 341° North  Level Estimated
Wed 01:38:00 AM 13.7587 74.7631 341° North  Level Estimated
Wed 01:39:00 AM 13.8325 74.7376 341° North  Level Estimated
Wed 01:40:00 AM 13.9062 74.7121 341° North  Level Estimated
Wed 01:41:00 AM 13.9800 74.6865 341° North  Level Estimated
Wed 01:42:00 AM 14.0537 74.6609 341° North  Level Estimated
Wed 01:43:00 AM 14.1275 74.6353 341° North  Level Estimated
Wed 01:44:00 AM 14.2012 74.6097 341° North  Level Estimated
Wed 01:45:00 AM 14.2750 74.5841 341° North  Level Estimated
Wed 01:46:00 AM 14.3487 74.5585 341° North  Level Estimated
Wed 01:47:00 AM 14.4225 74.5328 341° North  Level Estimated
Wed 01:48:00 AM 14.4962 74.5071 341° North  Level Estimated
Wed 01:49:00 AM 14.5699 74.4815 341° North  Level Estimated
Wed 01:50:00 AM 14.6436 74.4557 341° North  Level Estimated
Wed 01:51:00 AM 14.7174 74.4300 341° North  Level Estimated
Wed 01:52:00 AM 14.7911 74.4043 341° North  Level Estimated
Wed 01:53:00 AM 14.8648 74.3785 341° North  Level Estimated
Wed 01:54:00 AM 14.9385 74.3527 341° North  Level Estimated
Wed 01:55:00 AM 15.0122 74.3270 341° North  Level Estimated
Wed 01:56:00 AM 15.0859 74.3011 341° North  Level Estimated
Wed 01:57:00 AM 15.1597 74.2753 341° North  Level Estimated
Wed 01:58:00 AM 15.2334 74.2495 341° North  Level Estimated
Wed 01:59:00 AM 15.3071 74.2236 341° North  Level Estimated
Wed 02:00:00 AM 15.3808 74.1977 341° North  Level Estimated
Wed 02:01:00 AM 15.4545 74.1718 341° North  Level Estimated
Wed 02:02:00 AM 15.5282 74.1459 341° North  Level Estimated
Wed 02:03:00 AM 15.6018 74.1199 341° North  Level Estimated
Wed 02:04:00 AM 15.6755 74.0940 341° North  Level Estimated
Wed 02:05:00 AM 15.7492 74.0680 341° North  Level Estimated
Wed 02:06:00 AM 15.8229 74.0420 341° North  Level Estimated
Wed 02:07:00 AM 15.8966 74.0160 341° North  Level Estimated
Wed 02:08:00 AM 15.9703 73.9900 341° North  Level Estimated
Wed 02:09:00 AM 16.0439 73.9639 341° North  Level Estimated
Wed 02:10:00 AM 16.1176 73.9378 341° North  Level Estimated
Wed 02:11:00 AM 16.1913 73.9118 341° North  Level Estimated
Wed 02:12:00 AM 16.2649 73.8856 341° North  Level Estimated
Wed 02:13:00 AM 16.3386 73.8595 341° North  Level Estimated
Wed 02:14:00 AM 16.4123 73.8334 341° North  Level Estimated
Wed 02:15:00 AM 16.4859 73.8072 341° North  Level Estimated
Wed 02:16:00 AM 16.5596 73.7810 341° North  Level Estimated
Wed 02:17:00 AM 16.6332 73.7548 341° North  Level Estimated
Wed 02:18:00 AM 16.7069 73.7286 341° North  Level Estimated
Wed 02:19:00 AM 16.7805 73.7023 341° North  Level Estimated
Wed 02:20:00 AM 16.8541 73.6760 341° North  Level Estimated
Wed 02:21:00 AM 16.9278 73.6497 341° North  Level Estimated
Wed 02:22:00 AM 17.0014 73.6234 341° North  Level Estimated
Wed 02:23:00 AM 17.0750 73.5971 341° North  Level Estimated
Wed 02:24:00 AM 17.1486 73.5707 341° North  Level Estimated
Wed 02:25:00 AM 17.2223 73.5444 341° North  Level Estimated
Wed 02:26:00 AM 17.2959 73.5180 341° North  Level Estimated
Wed 02:27:00 AM 17.3695 73.4915 341° North  Level Estimated
Wed 02:28:00 AM 17.4431 73.4651 341° North  Level Estimated
Wed 02:29:00 AM 17.5167 73.4387 341° North  Level Estimated
Wed 02:30:00 AM 17.5903 73.4122 341° North  Level Estimated
Wed 02:31:00 AM 17.6639 73.3857 341° North  Level Estimated
Wed 02:32:00 AM 17.7375 73.3591 341° North  Level Estimated
Wed 02:33:00 AM 17.8111 73.3326 341° North  Level Estimated
Wed 02:34:00 AM 17.8847 73.3060 341° North  Level Estimated
Wed 02:35:00 AM 17.9583 73.2794 341° North  Level Estimated
Wed 02:36:00 AM 18.0319 73.2528 341° North  Level Estimated
Wed 02:37:00 AM 18.1054 73.2262 341° North  Level Estimated
Wed 02:38:00 AM 18.1790 73.1995 341° North  Level Estimated
Wed 02:39:00 AM 18.2526 73.1728 341° North  Level Estimated
Wed 02:40:00 AM 18.3261 73.1461 341° North  Level Estimated
Wed 02:41:00 AM 18.3997 73.1194 341° North  Level Estimated
Wed 02:42:00 AM 18.4733 73.0927 341° North  Level Estimated
Wed 02:43:00 AM 18.5468 73.0659 341° North  Level Estimated
Wed 02:44:00 AM 18.6204 73.0391 341° North  Level Estimated
Wed 02:45:00 AM 18.6939 73.0123 341° North  Level Estimated
Wed 02:46:00 AM 18.7675 72.9854 341° North  Level Estimated
Wed 02:47:00 AM 18.8410 72.9586 341° North  Level Estimated
Wed 02:48:00 AM 18.9145 72.9317 341° North  Level Estimated
Wed 02:49:00 AM 18.9881 72.9048 341° North  Level Estimated
Wed 02:50:00 AM 19.0616 72.8779 341° North  Level Estimated
Wed 02:51:00 AM 19.0887 72.8679 341° North  Level Estimated
Wed 02:52:00 AM 19.0887 72.8679 193° South  Level Estimated
Wed 02:53:00 AM 19.0887 72.8679 193° South  Level Estimated
Wed 02:54:00 AM 19.0887 72.8679 193° South  Level Estimated
Wed 02:55:00 AM 19.0887 72.8679 193° South  Level Estimated
Wed 02:56:00 AM 19.0887 72.8679 193° South  Level Estimated
Wed 02:57:00 AM 19.0887 72.8679 193° South  Level Estimated
Wed 02:58:00 AM 19.0887 72.8679 193° South  Level Estimated
Wed 02:59:00 AM 19.0887 72.8679 193° South  Level Estimated
Wed 03:00:00 AM 19.0887 72.8679 193° South  Level Estimated
Wed 03:01:00 AM 19.0887 72.8679 193° South  Level Estimated
Wed 03:02:00 AM 19.0887 72.8679 193° South  Level Estimated
Wed 03:03:00 AM 19.0887 72.8679 193° South  Level Estimated
Wed 03:04:00 AM 19.0887 72.8679 193° South  Level Estimated
Wed 03:05:00 AM 19.0887 72.8679 193° South  Level Estimated
Wed 03:06:00 AM 19.0887 72.8679 193° South  Level Estimated
Wed 03:07:00 AM 19.0887 72.8679 193° South  Level Estimated
Wed 03:08:00 AM 19.0887 72.8679 193° South  Level Estimated
Wed 03:09:00 AM 19.0887 72.8679 193° South  Level Estimated
Wed 03:10:00 AM 19.0887 72.8679 193° South  Level Estimated
Wed 03:11:00 AM 19.0887 72.8679 193° South  Level Estimated
Wed 03:12:00 AM 19.0887 72.8679 193° South  Level Estimated
Wed 03:13:00 AM 19.0887 72.8679 193° South  Level Estimated
Wed 03:14:00 AM 19.0887 72.8679 193° South  Level Estimated
Wed 03:15:00 AM 19.0887 72.8679 193° South  Level Estimated
Wed 03:16:00 AM 19.0887 72.8679 193° South  Level Estimated

Login

Don't have an account? Register now (free) for customized features, flight alerts, and more!